Time;durP1;ratioP1;P1;durP2;ratioP2;P2;SDS_P1;SDS_P2;PMS_P1;PMS_P2;Temp;Humidity;BMP_temperature;BMP_pressure;BME280_temperature;BME280_humidity;BME280_pressure;Samples;Min_cycle;Max_cycle;Signal;HPM_P1;HPM_P2
2022/04/04 00:01:16;;;;;;;29.73;11.95;;;;;;;7.54;72.20;98074.69;6249995;22;20038;-76
2022/04/04 00:03:42;;;;;;;31.48;11.82;;;;;;;7.59;72.43;98084.94;6276569;22;20024;-76
2022/04/04 00:06:08;;;;;;;50.05;16.02;;;;;;;7.65;72.18;98079.09;6249569;22;20024;-76
2022/04/04 00:08:34;;;;;;;37.92;12.30;;;;;;;7.67;72.11;98072.66;6276501;22;20043;-77
2022/04/04 00:11:01;;;;;;;40.85;13.93;;;;;;;7.69;72.25;98078.66;6276352;22;20094;-76
2022/04/04 00:13:27;;;;;;;36.22;12.13;;;;;;;7.73;72.31;98077.41;6224014;22;20027;-75
2022/04/04 00:15:56;;;;;;;48.90;12.40;;;;;;;7.75;72.37;98069.31;6276231;22;20018;-76
2022/04/04 00:18:22;;;;;;;37.38;11.00;;;;;;;7.79;72.05;98081.38;6276247;22;20015;-74
2022/04/04 00:20:49;;;;;;;46.25;11.95;;;;;;;7.82;72.12;98070.44;6249350;22;20068;-75
2022/04/04 00:23:16;;;;;;;33.58;12.43;;;;;;;7.85;72.03;98074.66;6250826;22;20020;-75
2022/04/04 00:25:46;;;;;;;44.80;13.25;;;;;;;7.81;72.07;98074.06;6278384;22;20098;-76
2022/04/04 00:28:13;;;;;;;51.70;13.50;;;;;;;7.83;72.07;98080.13;6278051;22;20047;-76
2022/04/04 00:30:39;;;;;;;39.58;12.55;;;;;;;7.81;71.51;98078.56;6251530;22;20022;-76
2022/04/04 00:33:07;;;;;;;47.20;15.23;;;;;;;7.74;71.57;98063.13;6251355;22;20022;-75
2022/04/04 00:35:33;;;;;;;42.13;12.80;;;;;;;7.71;71.59;98057.25;6200382;22;20015;-75
2022/04/04 00:38:01;;;;;;;40.53;13.23;;;;;;;7.72;71.61;98064.25;6200539;22;20019;-77
2022/04/04 00:40:26;;;;;;;45.15;12.90;;;;;;;7.68;71.77;98057.53;6278830;22;20019;-75
2022/04/04 00:42:53;;;;;;;37.25;12.02;;;;;;;7.65;71.60;98053.31;6251463;22;20020;-76
2022/04/04 00:45:19;;;;;;;33.40;11.18;;;;;;;7.64;71.68;98050.81;6225792;22;20020;-76
2022/04/04 00:47:45;;;;;;;33.60;11.75;;;;;;;7.59;71.82;98050.34;6251212;22;20070;-75
2022/04/04 00:50:12;;;;;;;37.38;11.70;;;;;;;7.53;71.56;98047.28;6273958;22;20019;-76
2022/04/04 00:52:38;;;;;;;35.22;12.30;;;;;;;7.54;71.48;98035.66;6278076;22;20025;-76
2022/04/04 00:55:08;;;;;;;36.38;11.75;;;;;;;7.51;71.43;98035.91;6250917;22;20018;-77
2022/04/04 00:57:36;;;;;;;37.92;11.85;;;;;;;7.55;71.67;98036.50;6276249;22;20455;-75
2022/04/04 01:00:05;;;;;;;40.13;11.30;;;;;;;7.49;71.62;98037.06;6250920;22;20557;-77
2022/04/04 01:02:31;;;;;;;36.35;11.80;;;;;;;7.38;71.32;98027.34;6251006;22;20019;-77
2022/04/04 01:04:57;;;;;;;41.40;10.88;;;;;;;7.27;72.05;98033.59;6277736;22;20035;-75
2022/04/04 01:07:23;;;;;;;30.98;10.60;;;;;;;7.27;71.99;98038.09;6251108;22;20091;-77
2022/04/04 01:09:50;;;;;;;40.42;11.13;;;;;;;7.26;72.04;98031.94;6276407;22;20019;-75
2022/04/04 01:12:16;;;;;;;31.98;11.55;;;;;;;7.31;72.12;98042.16;6278091;22;20050;-76
2022/04/04 01:14:47;;;;;;;40.50;11.32;;;;;;;7.30;72.13;98021.88;6277940;22;20344;-75
2022/04/04 01:17:25;;;;;;;44.60;11.93;;;;;;;7.36;72.10;98023.13;6225732;22;20042;-76
2022/04/04 01:19:52;;;;;;;34.58;11.05;;;;;;;7.36;72.25;98031.94;6276350;22;20015;-75
2022/04/04 01:22:18;;;;;;;34.17;11.35;;;;;;;7.33;72.09;98026.06;6276167;22;20024;-76
2022/04/04 01:24:43;;;;;;;44.38;12.82;;;;;;;7.34;71.89;98039.25;6276646;22;20042;-76
2022/04/04 01:27:11;;;;;;;42.10;13.95;;;;;;;7.38;72.01;98026.53;6277287;22;20090;-76
2022/04/04 01:29:38;;;;;;;47.33;13.23;;;;;;;7.39;71.83;98021.06;6276296;22;20022;-75
2022/04/04 01:32:07;;;;;;;48.00;13.65;;;;;;;7.36;71.95;98023.13;6276144;22;20020;-76
2022/04/04 01:34:33;;;;;;;44.03;14.77;;;;;;;7.30;72.19;98011.25;6275684;22;20026;-76
2022/04/04 01:36:59;;;;;;;41.83;14.23;;;;;;;7.34;72.38;98012.66;6250592;22;20016;-75
2022/04/04 01:39:25;;;;;;;49.92;15.27;;;;;;;7.35;72.45;98009.00;6277666;22;20016;-76
2022/04/04 01:41:51;;;;;;;50.58;16.50;;;;;;;7.39;72.46;97999.78;6250492;22;20015;-76
2022/04/04 01:44:17;;;;;;;49.88;16.67;;;;;;;7.41;72.48;97995.19;6276127;22;20012;-75
2022/04/04 01:46:43;;;;;;;52.70;15.82;;;;;;;7.47;72.17;98002.59;6275925;22;20026;-76
2022/04/04 01:49:10;;;;;;;51.65;16.23;;;;;;;7.45;72.35;98009.88;6277546;22;20363;-76
2022/04/04 01:51:38;;;;;;;51.78;17.15;;;;;;;7.45;72.23;98009.88;6250478;22;20020;-75
2022/04/04 01:54:05;;;;;;;55.22;16.55;;;;;;;7.42;72.13;97993.38;6277613;22;20090;-76
2022/04/04 01:56:31;;;;;;;49.60;15.27;;;;;;;7.48;72.41;97992.81;6225246;22;20019;-75
2022/04/04 01:58:59;;;;;;;47.85;15.93;;;;;;;7.55;72.14;98001.91;6224840;22;20015;-75
2022/04/04 02:01:26;;;;;;;54.05;15.48;;;;;;;7.62;71.94;97994.25;6277254;22;20077;-76
2022/04/04 02:03:54;;;;;;;46.45;14.40;;;;;;;7.58;72.01;97992.84;6224306;22;20030;-75
2022/04/04 02:06:20;;;;;;;46.05;14.45;;;;;;;7.59;71.91;97994.50;6250301;22;20027;-75
2022/04/04 02:08:47;;;;;;;63.97;15.98;;;;;;;7.64;71.94;97989.66;6225479;22;20019;-75
2022/04/04 02:11:14;;;;;;;40.85;13.65;;;;;;;7.75;71.97;97985.03;6250281;22;20022;-77
2022/04/04 02:13:41;;;;;;;41.70;13.35;;;;;;;7.71;71.75;97965.00;6250105;22;20077;-76
2022/04/04 02:16:07;;;;;;;44.83;14.52;;;;;;;7.84;71.59;97983.34;6277024;22;20043;-77
2022/04/04 02:18:37;;;;;;;42.50;13.43;;;;;;;7.85;71.53;97973.56;6249540;22;20019;-77
2022/04/04 02:21:03;;;;;;;;;;;;;;;7.90;71.51;97968.63;6277244;22;20020;-75
2022/04/04 02:23:29;;;;;;;46.03;13.20;;;;;;;7.93;71.38;97957.72;6250152;22;20342;-74
2022/04/04 02:25:56;;;;;;;42.40;11.73;;;;;;;7.96;71.18;97947.66;6249083;22;20022;-79
2022/04/04 02:28:23;;;;;;;37.67;11.10;;;;;;;8.02;71.03;97949.75;6223860;22;20573;-76
2022/04/04 02:30:49;;;;;;;51.97;11.73;;;;;;;8.07;71.11;97956.47;6276610;22;20019;-78
2022/04/04 02:33:17;;;;;;;40.05;15.43;;;;;;;8.18;71.04;97966.97;6249641;22;20019;-77
2022/04/04 02:35:44;;;;;;;36.58;11.38;;;;;;;8.25;70.46;97968.09;6199442;22;20019;-76
2022/04/04 02:38:11;;;;;;;35.28;10.55;;;;;;;8.28;70.52;97966.00;6276933;22;20138;-80
2022/04/04 02:40:39;;;;;;;37.40;11.85;;;;;;;8.57;71.39;97964.28;6249832;22;20302;-76
2022/04/04 02:43:06;;;;;;;33.58;11.05;;;;;;;8.58;69.92;97960.66;6248866;22;20337;-77
2022/04/04 02:45:32;;;;;;;30.88;12.38;;;;;;;8.61;69.08;97957.66;6223626;22;20023;-76
2022/04/04 02:47:58;;;;;;;57.15;14.82;;;;;;;8.60;68.87;97974.66;6250254;22;20015;-76
2022/04/04 02:50:25;;;;;;;31.40;11.82;;;;;;;8.54;68.30;97996.50;6276901;22;20015;-74
2022/04/04 02:52:51;;;;;;;39.58;10.20;;;;;;;8.43;68.19;97998.38;6250218;22;20016;-77
2022/04/04 02:58:02;;;;;;;45.83;11.60;;;;;;;8.22;68.82;98024.28;6249396;22;20016;-75
2022/04/04 03:00:28;;;;;;;42.13;11.10;;;;;;;8.18;69.12;98033.53;6249355;22;20023;-76
2022/04/04 03:02:55;;;;;;;40.33;12.10;;;;;;;8.12;69.15;98031.41;6276737;22;20359;-75
2022/04/04 03:05:21;;;;;;;38.30;10.57;;;;;;;8.06;69.36;98011.53;6249322;22;20023;-77
2022/04/04 03:07:47;;;;;;;28.35;10.52;;;;;;;8.15;69.34;98001.84;6249504;22;20064;-74
2022/04/04 03:10:13;;;;;;;49.25;11.90;;;;;;;8.33;69.12;97999.31;6276504;22;20047;-74
2022/04/04 03:12:44;;;;;;;29.17;11.23;;;;;;;8.40;68.38;97989.81;6249288;22;20085;-78
2022/04/04 03:15:12;;;;;;;42.10;11.73;;;;;;;8.26;68.57;97977.75;6276054;22;20406;-76
2022/04/04 03:17:43;;;;;;;36.90;11.40;;;;;;;8.17;69.09;97981.28;6276652;22;20012;-76
2022/04/04 03:20:11;;;;;;;43.35;12.05;;;;;;;8.35;69.04;97971.59;6249838;22;20019;-76
2022/04/04 03:22:43;;;;;;;29.35;11.88;;;;;;;8.46;68.92;97963.47;6224319;22;20344;-77
2022/04/04 03:25:10;;;;;;;38.08;12.52;;;;;;;8.58;68.22;97961.47;6249934;22;20038;-78
2022/04/04 03:27:40;;;;;;;35.35;14.05;;;;;;;8.62;68.31;97938.91;6224225;22;20027;-76
2022/04/04 03:30:09;;;;;;;47.80;13.88;;;;;;;8.74;68.33;97942.22;6249758;22;20015;-77
2022/04/04 03:32:35;;;;;;;45.15;14.05;;;;;;;8.89;67.80;97932.75;6279193;22;20015;-75
2022/04/04 03:35:02;;;;;;;39.80;13.15;;;;;;;9.05;67.54;97931.28;6255135;22;20019;-76
2022/04/04 03:37:29;;;;;;;46.85;12.85;;;;;;;9.16;67.32;97923.09;6252505;22;20016;-83
2022/04/04 03:39:54;;;;;;;55.47;13.23;;;;;;;9.27;66.50;97920.22;6224450;22;20394;-79
2022/04/04 03:42:20;;;;;;;48.22;13.63;;;;;;;9.29;66.24;97912.94;6224442;22;20111;-78
2022/04/04 03:44:47;;;;;;;42.80;13.95;;;;;;;9.31;66.15;97916.28;6248990;22;20016;-76
2022/04/04 03:47:13;;;;;;;49.70;14.55;;;;;;;9.36;65.79;97918.47;6276386;22;20016;-78
2022/04/04 03:49:39;;;;;;;40.42;15.63;;;;;;;9.38;65.63;97911.19;6265153;22;20015;-77
2022/04/04 03:52:07;;;;;;;39.40;13.70;;;;;;;9.44;65.78;97910.56;6275047;22;20020;-78
2022/04/04 03:54:33;;;;;;;37.30;12.98;;;;;;;9.38;65.88;97900.53;6224429;22;20015;-78
2022/04/04 03:57:00;;;;;;;46.53;13.80;;;;;;;9.45;65.64;97893.59;6275712;22;20463;-79
2022/04/04 03:59:26;;;;;;;35.95;13.38;;;;;;;9.43;65.60;97904.41;6274684;22;20015;-77
2022/04/04 04:01:52;;;;;;;45.55;13.30;;;;;;;9.47;65.79;97895.09;6199168;22;20054;-77
2022/04/04 04:04:18;;;;;;;39.42;12.13;;;;;;;9.55;65.51;97896.19;6275767;22;20359;-77
2022/04/04 04:06:45;;;;;;;38.28;11.95;;;;;;;9.53;65.13;97892.84;6275235;22;20102;-77
2022/04/04 04:09:12;;;;;;;37.50;10.70;;;;;;;9.64;65.41;97897.94;6247574;22;20020;-76
2022/04/04 04:11:38;;;;;;;58.22;12.52;;;;;;;9.78;64.98;97878.75;6276091;22;20019;-76
2022/04/04 04:14:05;;;;;;;32.60;10.95;;;;;;;9.90;64.41;97874.00;6273471;22;20024;-76
2022/04/04 04:16:31;;;;;;;38.95;10.27;;;;;;;10.05;63.69;97874.28;6223605;22;20027;-77
2022/04/04 04:18:57;;;;;;;22.13;9.00;;;;;;;10.07;63.32;97865.09;6275753;22;20023;-78
2022/04/04 04:21:23;;;;;;;28.27;8.88;;;;;;;10.12;63.18;97862.00;6274985;22;20424;-76
2022/04/04 04:23:50;;;;;;;24.77;8.02;;;;;;;10.03;62.65;97846.91;6248927;22;20027;-75
2022/04/04 04:26:17;;;;;;;29.30;9.05;;;;;;;10.15;63.29;97862.50;6274400;22;20015;-76
2022/04/04 04:28:45;;;;;;;26.15;8.77;;;;;;;10.27;63.27;97865.81;6276230;22;20016;-77
2022/04/04 04:31:12;;;;;;;28.27;8.88;;;;;;;10.12;62.74;97856.66;6274368;22;20035;-76
2022/04/04 04:33:38;;;;;;;29.27;8.77;;;;;;;10.10;62.79;97854.13;6275863;22;20023;-76
2022/04/04 04:36:04;;;;;;;29.23;9.50;;;;;;;9.99;62.79;97865.06;6276111;22;20012;-76
2022/04/04 04:38:31;;;;;;;29.70;8.00;;;;;;;10.08;62.99;97855.25;6276103;22;20078;-77
2022/04/04 04:40:58;;;;;;;35.15;8.27;;;;;;;10.18;63.45;97856.00;6274285;22;20030;-77
2022/04/04 04:43:24;;;;;;;25.45;8.65;;;;;;;10.19;62.92;97850.53;6275469;22;20019;-77
2022/04/04 04:45:50;;;;;;;34.63;9.25;;;;;;;10.49;62.74;97860.91;6248742;22;20023;-75
2022/04/04 04:48:16;;;;;;;29.40;8.07;;;;;;;10.66;61.79;97852.81;6248405;22;20019;-76
2022/04/04 04:50:41;;;;;;;36.97;8.70;;;;;;;10.80;61.51;97855.91;6274782;22;20390;-76
2022/04/04 04:53:07;;;;;;;33.17;8.75;;;;;;;10.83;61.44;97850.22;6275647;22;20015;-76
2022/04/04 04:55:34;;;;;;;29.77;8.07;;;;;;;10.96;61.14;97863.13;6248990;22;20020;-75
2022/04/04 04:57:59;;;;;;;26.60;9.10;;;;;;;10.74;60.71;97861.88;6274303;22;20061;-76
2022/04/04 05:00:28;;;;;;;28.25;8.10;;;;;;;10.76;61.08;97859.91;6277857;22;20019;-74
2022/04/04 05:05:40;;;;;;;37.03;9.57;;;;;;;10.79;60.89;97844.34;6278666;22;20103;-75
2022/04/04 05:08:07;;;;;;;25.02;7.93;;;;;;;10.75;60.85;97842.16;6276525;22;20345;-76
2022/04/04 05:10:33;;;;;;;31.58;9.90;;;;;;;10.96;60.86;97847.94;6250928;22;20015;-76
2022/04/04 05:12:59;;;;;;;28.40;8.30;;;;;;;11.01;60.63;97858.13;6276505;22;20023;-76
2022/04/04 05:15:25;;;;;;;24.42;8.05;;;;;;;11.05;60.79;97849.63;6250445;22;20019;-75
2022/04/04 05:17:52;;;;;;;36.20;7.70;;;;;;;11.14;60.21;97847.84;6277685;22;20092;-75
2022/04/04 05:20:19;;;;;;;27.75;7.53;;;;;;;10.89;60.40;97853.09;6200323;22;20019;-76
2022/04/04 05:22:45;;;;;;;33.75;8.05;;;;;;;10.89;60.42;97860.28;6250082;22;20020;-76
2022/04/04 05:25:12;;;;;;;27.33;8.60;;;;;;;10.92;60.56;97857.28;6249883;22;20019;-76
2022/04/04 06:27:02;;;;;;;26.15;10.50;;;;;;;9.28;68.24;97852.56;5060910;27;2100952;-74
2022/04/04 06:29:28;;;;;;;31.10;10.23;;;;;;;9.62;67.53;97849.22;5110593;28;20122;-76
2022/04/04 06:31:55;;;;;;;31.17;10.20;;;;;;;9.92;66.35;97831.97;5110777;28;20130;-76
2022/04/04 06:34:21;;;;;;;30.80;9.95;;;;;;;10.33;65.52;97846.44;5092319;28;20055;-75
2022/04/04 06:36:47;;;;;;;35.80;11.02;;;;;;;10.65;64.80;97848.47;5110776;28;20035;-75
2022/04/04 06:39:14;;;;;;;39.13;9.55;;;;;;;10.96;64.20;97845.25;5110656;28;20075;-75
2022/04/04 06:41:40;;;;;;;25.77;9.60;;;;;;;11.30;62.85;97842.50;5075163;28;20076;-76
2022/04/04 06:44:07;;;;;;;31.08;10.18;;;;;;;11.66;62.40;97850.28;5092076;28;20047;-76
2022/04/04 06:46:36;;;;;;;35.63;10.98;;;;;;;12.08;61.04;97843.94;5091723;28;20116;-76
2022/04/04 06:49:03;;;;;;;;;;;;;;;12.32;59.41;97843.88;5076362;28;20044;-75
2022/04/04 06:51:29;;;;;;;31.45;9.80;;;;;;;12.43;58.40;97833.81;5075033;28;20073;-75
2022/04/04 06:53:54;;;;;;;40.13;9.23;;;;;;;12.49;58.12;97831.31;5091948;28;20118;-75
2022/04/04 06:56:20;;;;;;;40.30;9.95;;;;;;;12.62;57.90;97820.03;5110424;28;20051;-76
2022/04/04 06:58:46;;;;;;;32.63;9.38;;;;;;;12.82;57.92;97807.03;5092009;28;20058;-76
2022/04/04 07:01:12;;;;;;;34.17;8.02;;;;;;;12.89;56.90;97808.84;5110163;28;20048;-76
2022/04/04 07:03:38;;;;;;;36.15;9.65;;;;;;;13.17;56.68;97802.19;5110584;28;20510;-77
2022/04/04 07:06:05;;;;;;;32.90;9.23;;;;;;;13.55;56.31;97805.81;5110007;28;20036;-75
2022/04/04 07:08:31;;;;;;;29.65;9.00;;;;;;;13.67;55.27;97799.00;5075162;28;20051;-77
2022/04/04 07:10:57;;;;;;;26.25;8.75;;;;;;;13.55;55.07;97781.66;5109621;28;20044;-75
2022/04/04 07:13:23;;;;;;;34.08;11.02;;;;;;;13.90;55.07;97782.03;5109907;28;20413;-75
2022/04/04 07:15:50;;;;;;;20.98;8.45;;;;;;;14.16;53.80;97790.50;5091649;28;20040;-75
2022/04/04 07:18:17;;;;;;;28.92;7.97;;;;;;;14.28;53.44;97788.19;5091592;28;20040;-76
2022/04/04 07:20:43;;;;;;;30.33;7.60;;;;;;;14.45;52.52;97784.31;5091713;28;20410;-77
2022/04/04 07:23:08;;;;;;;29.88;9.02;;;;;;;14.68;52.23;97784.25;5109655;28;20036;-75
2022/04/04 07:25:35;;;;;;;23.77;8.38;;;;;;;14.66;51.85;97786.28;5083067;28;20055;-76
2022/04/04 07:28:01;;;;;;;24.00;8.48;;;;;;;14.60;51.66;97788.91;5054279;28;20073;-75
2022/04/04 07:30:27;;;;;;;35.85;8.63;;;;;;;14.72;51.67;97788.22;5070639;28;20131;-75
2022/04/04 07:32:53;;;;;;;38.30;9.52;;;;;;;14.71;50.93;97788.44;5071049;28;20168;-77
2022/04/04 07:35:20;;;;;;;29.17;8.55;;;;;;;14.79;51.26;97781.09;5070786;28;20080;-75
2022/04/04 07:37:47;;;;;;;26.05;8.60;;;;;;;15.06;50.69;97786.78;5059983;28;20093;-75
2022/04/04 07:40:16;;;;;;;33.75;9.40;;;;;;;15.35;50.04;97785.88;5040954;28;20051;-76
2022/04/04 07:42:44;;;;;;;24.67;9.75;;;;;;;15.69;49.95;97773.59;5075451;28;20045;-76
2022/04/04 07:45:13;;;;;;;25.58;8.27;;;;;;;15.92;49.08;97765.28;5041240;28;20071;-76
2022/04/04 07:47:40;;;;;;;35.38;9.15;;;;;;;16.02;48.73;97779.22;5040943;28;20051;-75
2022/04/04 07:50:08;;;;;;;29.63;10.57;;;;;;;15.97;47.54;97779.81;5040902;28;20406;-77
2022/04/04 07:52:34;;;;;;;31.75;9.55;;;;;;;15.99;48.67;97776.94;5057511;28;20036;-76
2022/04/04 07:55:00;;;;;;;32.78;8.77;;;;;;;16.16;47.57;97751.34;5075619;28;20048;-75
2022/04/04 07:57:26;;;;;;;44.63;9.00;;;;;;;16.30;46.87;97773.03;5075164;28;20460;-77
2022/04/04 07:59:52;;;;;;;27.45;9.00;;;;;;;16.46;46.56;97773.53;5057118;28;20037;-77
2022/04/04 08:02:18;;;;;;;32.05;8.13;;;;;;;16.73;46.36;97771.81;5040481;28;20483;-76
2022/04/04 08:04:44;;;;;;;37.75;9.25;;;;;;;16.90;45.95;97769.63;5023933;28;20041;-76
2022/04/04 08:07:10;;;;;;;33.03;8.32;;;;;;;17.21;45.32;97761.00;5075188;28;20601;-77
2022/04/04 08:09:36;;;;;;;29.95;8.85;;;;;;;17.11;44.42;97766.00;5074891;28;20522;-75
2022/04/04 08:12:02;;;;;;;40.75;8.68;;;;;;;17.22;44.78;97759.97;5074883;28;20044;-77
2022/04/04 08:14:28;;;;;;;31.90;8.20;;;;;;;17.45;44.76;97766.88;5074790;28;20044;-76
2022/04/04 08:16:54;;;;;;;32.60;8.85;;;;;;;17.56;44.18;97760.03;5075175;28;20093;-75
2022/04/04 08:19:20;;;;;;;33.50;8.95;;;;;;;17.43;43.42;97769.78;5074664;28;20486;-77
2022/04/04 08:21:46;;;;;;;20.17;8.60;;;;;;;17.44;43.58;97776.03;5056616;28;20033;-78
2022/04/04 08:24:16;;;;;;;30.23;9.52;;;;;;;17.36;43.64;97785.16;5040200;28;20178;-78
2022/04/04 08:26:42;;;;;;;34.88;11.00;;;;;;;17.17;44.42;97792.16;5039386;28;20101;-77
2022/04/04 08:29:12;;;;;;;32.08;11.07;;;;;;;16.83;44.37;97794.94;5057183;28;20194;-77
2022/04/04 08:31:37;;;;;;;;;;;;;;;16.73;44.89;97785.31;5074720;28;20040;-76
2022/04/04 08:34:03;;;;;;;41.28;10.35;;;;;;;16.48;45.32;97781.44;5074543;28;20007;-79
2022/04/04 08:36:29;;;;;;;29.63;8.68;;;;;;;16.46;45.73;97768.13;5056758;28;20433;-76
2022/04/04 08:38:55;;;;;;;25.58;7.78;;;;;;;16.10;45.49;97760.25;5074421;28;20498;-77
2022/04/04 08:41:21;;;;;;;30.08;7.25;;;;;;;16.27;46.27;97755.38;5074689;28;20044;-76
2022/04/04 08:43:52;;;;;;;30.38;8.15;;;;;;;16.52;45.81;97767.34;5024100;28;20051;-77
2022/04/04 08:46:18;;;;;;;27.85;8.10;;;;;;;16.40;45.97;97762.72;5056285;28;20041;-76
2022/04/04 08:48:44;;;;;;;24.77;7.47;;;;;;;16.73;45.76;97755.63;5055378;28;20053;-78
2022/04/04 08:51:10;;;;;;;23.08;6.68;;;;;;;16.99;45.26;97767.59;5056358;28;20040;-75
2022/04/04 08:53:38;;;;;;;16.50;6.10;;;;;;;17.08;44.70;97766.38;5055895;28;20502;-76
2022/04/04 08:56:06;;;;;;;37.50;7.70;;;;;;;17.34;44.70;97764.78;5023601;28;20037;-77
2022/04/04 08:58:35;;;;;;;23.98;6.68;;;;;;;17.17;43.99;97769.72;5039577;28;20402;-76
2022/04/04 09:01:01;;;;;;;;;;;;;;;17.01;44.10;97779.03;5056929;28;20075;-75
2022/04/04 09:03:31;;;;;;;23.42;6.57;;;;;;;17.26;44.83;97773.91;5073645;28;20341;-77
2022/04/04 09:05:59;;;;;;;24.40;6.50;;;;;;;17.40;43.90;97774.78;5055593;28;20467;-77
2022/04/04 09:08:28;;;;;;;24.30;7.60;;;;;;;17.45;43.48;97761.47;5056020;28;20048;-78
2022/04/04 09:10:55;;;;;;;;;;;;;;;17.37;43.71;97772.47;5023256;28;20490;-76
2022/04/04 09:13:23;;;;;;;24.17;6.30;;;;;;;17.32;44.56;97769.56;5039062;28;19974;-76
2022/04/04 09:15:53;;;;;;;22.00;7.07;;;;;;;17.61;43.58;97771.06;5055893;28;20048;-78
2022/04/04 09:18:24;;;;;;;20.35;6.45;;;;;;;17.60;43.85;97767.53;5038799;28;20383;-76
2022/04/04 09:20:53;;;;;;;28.20;6.05;;;;;;;17.40;43.30;97763.97;5057881;28;20040;-74
2022/04/04 09:23:19;;;;;;;28.55;6.95;;;;;;;17.47;43.52;97770.22;5039038;28;20442;-76
2022/04/04 09:25:45;;;;;;;18.73;6.03;;;;;;;17.73;43.20;97772.94;5073252;28;20056;-75
2022/04/04 09:28:17;;;;;;;28.75;6.28;;;;;;;17.83;42.96;97758.25;5073681;28;20118;-76
2022/04/04 09:31:03;;;;;;;24.38;6.68;;;;;;;17.90;42.82;97761.75;5073530;28;20064;-76
2022/04/04 09:33:40;;;;;;;22.05;6.43;;;;;;;18.06;42.43;97755.94;5039511;28;20533;-76
2022/04/04 09:36:08;;;;;;;24.58;5.57;;;;;;;17.92;42.55;97756.97;5055711;28;20048;-76
2022/04/04 09:38:34;;;;;;;20.13;6.90;;;;;;;17.52;43.21;97777.69;5055204;28;20044;-77
2022/04/04 09:41:15;;;;;;;18.83;6.35;;;;;;;17.16;43.79;97787.78;5073248;28;20502;-77
2022/04/04 09:43:55;;;;;;;28.30;6.28;;;;;;;16.98;44.57;97780.25;5072881;28;20082;-76
2022/04/04 09:46:21;;;;;;;23.42;5.72;;;;;;;16.98;44.65;97779.41;5022527;28;20036;-76
2022/04/04 09:49:09;;;;;;;20.42;5.50;;;;;;;16.71;44.91;97762.25;5022425;28;20041;-75
2022/04/04 09:51:50;;;;;;;18.83;5.30;;;;;;;16.86;44.57;97756.75;5055599;28;20051;-77
2022/04/04 09:54:17;;;;;;;22.05;6.30;;;;;;;16.95;45.04;97758.22;5022030;28;20113;-75
2022/04/04 09:56:46;;;;;;;22.60;5.28;;;;;;;16.92;44.94;97747.81;5038416;28;20453;-76
2022/04/04 09:59:15;;;;;;;17.93;5.73;;;;;;;16.95;44.42;97760.91;5038329;28;20048;-76
2022/04/04 10:01:42;;;;;;;19.85;5.63;;;;;;;16.71;44.61;97775.75;5054852;28;20058;-75
2022/04/04 10:04:09;;;;;;;30.00;5.88;;;;;;;16.90;44.70;97780.44;5038484;28;20040;-75
2022/04/04 10:06:36;;;;;;;21.63;5.20;;;;;;;16.96;44.60;97778.78;5054523;28;20392;-76
2022/04/04 10:09:03;;;;;;;19.35;5.53;;;;;;;16.85;44.02;97782.91;5055102;28;20044;-75
2022/04/04 10:11:30;;;;;;;23.00;5.00;;;;;;;16.91;44.30;97778.56;5038168;28;20097;-76
2022/04/04 10:13:57;;;;;;;21.83;5.22;;;;;;;17.19;44.01;97767.66;5038702;28;20556;-77
2022/04/04 10:16:24;;;;;;;21.45;4.63;;;;;;;17.35;43.51;97739.44;5054899;28;20178;-76
2022/04/04 10:18:51;;;;;;;16.35;4.72;;;;;;;17.41;43.44;97720.56;5021675;28;20129;-76
2022/04/04 10:21:18;;;;;;;25.73;4.97;;;;;;;17.82;42.80;97735.75;5054798;28;20486;-77
2022/04/04 10:23:47;;;;;;;16.63;4.40;;;;;;;18.17;42.28;97739.06;5021821;28;20043;-77
2022/04/04 10:26:15;;;;;;;16.95;4.60;;;;;;;18.28;41.86;97742.16;5054676;28;20071;-77
2022/04/04 10:28:44;;;;;;;20.38;5.07;;;;;;;18.61;41.06;97756.44;5038398;28;20040;-76
2022/04/04 10:31:20;;;;;;;16.50;4.72;;;;;;;18.23;41.26;97763.59;5072655;28;20062;-76
2022/04/04 10:33:50;;;;;;;21.90;4.47;;;;;;;17.97;41.95;97770.69;5054803;28;20048;-76
2022/04/04 10:36:24;;;;;;;18.35;4.30;;;;;;;18.19;41.77;97768.59;5038619;28;20051;-77
2022/04/04 10:38:55;;;;;;;18.77;4.78;;;;;;;18.29;41.47;97770.91;5072617;28;20110;-76
2022/04/04 10:41:27;;;;;;;18.67;4.43;;;;;;;18.31;40.98;97768.78;5054909;28;20048;-76
2022/04/04 10:43:54;;;;;;;17.58;4.10;;;;;;;18.10;41.08;97768.00;5054518;28;20143;-77
2022/04/04 10:46:22;;;;;;;17.20;4.15;;;;;;;18.27;41.16;97765.69;5037669;28;20123;-77
2022/04/04 10:48:59;;;;;;;14.60;4.63;;;;;;;18.66;40.00;97759.34;5054414;28;20048;-76
2022/04/04 10:51:34;;;;;;;17.52;4.75;;;;;;;18.68;40.38;97767.25;5037823;28;20066;-76
2022/04/04 10:54:03;;;;;;;19.35;4.45;;;;;;;18.96;39.92;97764.28;5038098;28;20049;-76
2022/04/04 10:56:31;;;;;;;14.70;3.97;;;;;;;18.98;39.59;97764.06;5054316;28;20332;-76
2022/04/04 10:59:15;;;;;;;14.97;3.90;;;;;;;19.24;39.03;97763.09;5054330;28;20064;-77
2022/04/04 11:01:46;;;;;;;20.08;4.88;;;;;;;19.14;38.81;97756.28;5071963;28;20060;-77
2022/04/04 11:04:30;;;;;;;15.85;4.68;;;;;;;18.42;39.90;97751.91;5037682;28;20419;-76
2022/04/04 11:09:56;;;;;;;20.65;4.60;;;;;;;17.58;42.14;97764.22;5054375;28;20052;-76
2022/04/04 11:12:25;;;;;;;17.92;4.30;;;;;;;17.28;42.27;97787.22;5022723;28;20498;-77
2022/04/04 11:14:55;;;;;;;;;;;;;;;16.91;43.04;97797.44;5041779;28;20040;-76
2022/04/04 11:17:36;;;;;;;17.25;5.05;;;;;;;16.59;43.99;97793.53;5057771;28;19921;-77
2022/04/04 11:20:31;;;;;;;14.82;4.82;;;;;;;16.10;44.72;97802.50;5075916;28;20047;-75
2022/04/04 11:23:08;;;;;;;17.52;4.70;;;;;;;16.14;45.21;97791.16;5041535;28;20044;-75
2022/04/04 11:25:37;;;;;;;19.80;5.15;;;;;;;15.86;45.81;97788.44;5040845;28;20181;-76
2022/04/04 11:28:05;;;;;;;32.95;5.18;;;;;;;15.87;45.75;97783.88;5040910;28;20147;-75
2022/04/04 11:30:31;;;;;;;18.15;4.32;;;;;;;15.69;46.52;97804.06;5024677;28;20079;-76
2022/04/04 11:32:59;;;;;;;19.13;4.88;;;;;;;15.23;47.19;97796.31;5057591;28;20048;-76
2022/04/04 11:35:30;;;;;;;22.48;6.05;;;;;;;15.12;47.29;97804.88;5057800;28;20045;-77
2022/04/04 11:38:06;;;;;;;23.63;6.07;;;;;;;14.90;47.92;97792.38;5075680;28;20554;-75
2022/04/04 11:40:37;;;;;;;22.52;5.45;;;;;;;14.68;48.77;97803.06;5041389;28;20094;-76
2022/04/04 11:43:08;;;;;;;16.35;5.20;;;;;;;14.68;48.58;97808.44;5075273;28;20072;-76
2022/04/04 11:45:36;;;;;;;18.92;5.82;;;;;;;14.63;48.56;97786.66;5040952;28;20048;-76
2022/04/04 11:48:07;;;;;;;23.20;5.50;;;;;;;14.56;49.17;97796.50;5057533;28;20075;-76
2022/04/04 11:50:35;;;;;;;16.15;4.78;;;;;;;14.38;49.73;97799.53;5040976;28;20498;-76
2022/04/04 11:53:05;;;;;;;22.20;5.60;;;;;;;14.32;50.42;97795.69;5057525;28;20067;-76
2022/04/04 11:55:33;;;;;;;20.13;5.00;;;;;;;14.44;50.40;97798.78;5024638;28;20044;-75
2022/04/04 11:58:10;;;;;;;24.38;6.18;;;;;;;14.73;50.18;97787.19;5057232;28;20048;-76
2022/04/04 12:00:38;;;;;;;19.77;5.07;;;;;;;14.85;49.47;97790.25;5075441;28;20043;-77
2022/04/04 12:03:12;;;;;;;12.05;4.40;;;;;;;14.94;48.92;97802.59;5040498;28;20047;-77
2022/04/04 12:05:44;;;;;;;11.32;4.25;;;;;;;14.43;49.92;97799.78;5057504;28;20053;-75
2022/04/04 12:08:12;;;;;;;17.98;5.22;;;;;;;13.98;50.74;97795.38;5040691;28;20040;-77
2022/04/04 12:10:40;;;;;;;22.08;5.68;;;;;;;13.69;51.83;97810.41;5074888;28;20131;-75
2022/04/04 12:13:08;;;;;;;23.67;5.03;;;;;;;13.44;52.48;97801.69;5057076;28;20491;-76
2022/04/04 12:15:37;;;;;;;20.88;5.40;;;;;;;13.46;53.11;97820.28;5057002;28;20052;-77
2022/04/04 12:18:05;;;;;;;19.73;5.05;;;;;;;13.53;52.85;97815.88;5040377;28;20048;-76
2022/04/04 12:20:42;;;;;;;15.32;6.20;;;;;;;13.61;52.76;97813.13;5056905;28;20127;-76
2022/04/04 12:26:03;;;;;;;21.83;5.47;;;;;;;13.36;53.21;97799.06;5076355;28;20078;-76
2022/04/04 12:28:32;;;;;;;26.23;5.50;;;;;;;13.25;53.35;97803.00;5040785;28;20056;-78
2022/04/04 12:31:18;;;;;;;21.80;5.25;;;;;;;13.11;54.24;97784.94;5056585;28;20049;-78
2022/04/04 12:33:51;;;;;;;19.70;6.30;;;;;;;13.22;53.86;97803.31;5074316;28;20059;-75
2022/04/04 12:36:38;;;;;;;18.70;5.97;;;;;;;13.08;54.37;97802.22;5039918;28;20045;-76
2022/04/04 12:39:06;;;;;;;24.00;5.15;;;;;;;13.03;54.34;97814.50;5056799;28;20052;-75
2022/04/04 12:41:43;;;;;;;20.23;6.13;;;;;;;12.75;54.59;97828.38;5074414;28;20093;-76